createdAt,value
2022-08-08T00:02:39.099Z,21.5
2022-08-08T00:42:39.047Z,21.4
2022-08-08T01:02:39.058Z,21.4
2022-08-08T01:22:38.995Z,19.9
2022-08-08T01:42:38.998Z,19.6
2022-08-08T02:02:38.980Z,18.7
2022-08-08T02:22:38.932Z,18.9
2022-08-08T02:42:38.914Z,18.4
2022-08-08T03:02:38.813Z,18.4
2022-08-08T03:22:38.864Z,17.7
2022-08-08T03:42:38.837Z,17.6
2022-08-08T04:02:38.841Z,17.6
2022-08-08T04:22:38.791Z,17.7
2022-08-08T04:42:38.708Z,17.4
2022-08-08T05:02:38.788Z,16.9
2022-08-08T05:22:38.727Z,17.0
2022-08-08T05:42:38.704Z,17.3
2022-08-08T06:02:38.627Z,17.9
2022-08-08T06:42:38.629Z,18.9
2022-08-08T07:02:38.598Z,19.3
2022-08-08T07:22:38.590Z,19.7
2022-08-08T07:42:38.495Z,20.4
2022-08-08T08:02:38.520Z,21.1
2022-08-08T08:22:38.489Z,22.0
2022-08-08T08:42:38.411Z,22.8
2022-08-08T09:02:38.457Z,23.6
2022-08-08T09:22:38.446Z,24.2
2022-08-08T09:42:38.393Z,24.9
2022-08-08T10:02:38.318Z,25.8
2022-08-08T10:22:38.367Z,26.4
2022-08-08T10:42:38.320Z,27.0
2022-08-08T11:02:38.293Z,27.4
2022-08-08T11:22:38.194Z,28.2
2022-08-08T11:42:38.233Z,28.9
2022-08-08T12:02:38.191Z,29.4
2022-08-08T13:02:38.049Z,30.5
2022-08-08T13:22:38.106Z,30.6
2022-08-08T13:42:38.037Z,31.0
2022-08-08T14:02:38.052Z,31.7
2022-08-08T14:42:37.925Z,31.7
2022-08-08T15:02:37.905Z,31.1
2022-08-08T15:22:37.902Z,31.2
2022-08-08T15:42:37.924Z,30.9
2022-08-08T16:42:37.788Z,30.4
2022-08-08T17:02:37.836Z,30.1
2022-08-08T17:22:37.821Z,29.8
2022-08-08T17:42:37.709Z,29.4
2022-08-08T18:02:37.769Z,29.2
2022-08-08T18:22:37.746Z,28.7
2022-08-08T18:42:37.684Z,28.2
2022-08-08T19:02:37.682Z,27.6
2022-08-08T19:22:37.699Z,27.0
2022-08-08T19:42:37.633Z,26.3
2022-08-08T20:02:37.603Z,25.9
2022-08-08T20:22:37.578Z,25.6
2022-08-08T21:02:37.532Z,24.6
2022-08-08T21:22:37.514Z,24.1
2022-08-08T22:02:37.482Z,23.7
2022-08-08T22:22:37.342Z,23.5
2022-08-08T22:42:37.405Z,24.1
2022-08-08T23:42:37.350Z,23.0
